PWSweather.com
Personal Weather Stations
Station Observations
MAKAWAOWX1
Up Country Maui, Makawao, HI 96768

Up Country MauiMakawao, HI 96768

Lat: 20.856944, Lon: -156.3149667

Elevation: 1500

Station Type: Davis Vantage Pro

www.dwayneyamato@hawaiiantel.net

High Low Average
Temperature 80.9°F27.2°F 66.8°F19.3°F 71.0°F21.7°F
Dew Point 72.8°F22.7°F 64.7°F18.2°F 68.0°F20.0°F
Winds 5.5 mph S8.9 mph S Calm Calm 0.6 mph 1.0 mph
Wind Gusts 7.0 mph11.3 mph -- 1.0 mph1.6 mph
Humidity 97% 69% 90%
Pressure 29.96 in1014.60 in 29.89 in1012.20 in -
Precipitation 1.37 in34.80 in - -
Hour Temp Dew Point Humidity Winds Wind Gusts Pressure Precip Precip Rate Daily Precip Total
12:00 AM 68.1°F20.1°C 65.7°F18.7°C 92% 0.1 mph ESE0.2 kmh ESE 2.0 mph3.2 kmh 29.92 in1013.2 mb 0.00 in0.0 mm 0.00 in/hr0.0 mm/hr 0.00 in0.0 mm
12:10 AM 68.3°F20.2°C 65.9°F18.8°C 92% Calm Calm -- 29.93 in1013.5 mb 0.00 in0.0 mm 0.00 in/hr0.0 mm/hr 0.00 in0.0 mm
12:20 AM 68.4°F20.2°C 65.7°F18.7°C 91% 3.0 mph ESE4.8 kmh ESE 5.0 mph8.0 kmh 29.92 in1013.2 mb 0.00 in0.0 mm 0.00 in/hr0.0 mm/hr 0.00 in0.0 mm
12:30 AM 68.5°F20.3°C 66.1°F18.9°C 92% Calm Calm -- 29.92 in1013.2 mb 0.00 in0.0 mm 0.00 in/hr0.0 mm/hr 0.00 in0.0 mm
12:40 AM 68.7°F20.4°C 66.0°F18.9°C 91% Calm Calm -- 29.92 in1013.2 mb 0.00 in0.0 mm 0.00 in/hr0.0 mm/hr 0.00 in0.0 mm
12:50 AM 68.8°F20.4°C 66.1°F18.9°C 91% Calm Calm -- 29.92 in1013.2 mb 0.00 in0.0 mm 0.00 in/hr0.0 mm/hr 0.00 in0.0 mm
01:00 AM 68.5°F20.3°C 65.5°F18.6°C 90% Calm Calm -- 29.92 in1013.2 mb 0.00 in0.0 mm 0.00 in/hr0.0 mm/hr 0.00 in0.0 mm
01:10 AM 68.3°F20.2°C 65.2°F18.4°C 90% Calm Calm -- 29.92 in1013.2 mb 0.00 in0.0 mm 0.00 in/hr0.0 mm/hr 0.00 in0.0 mm
01:20 AM 68.0°F20.0°C 65.3°F18.5°C 91% Calm Calm -- 29.92 in1013.2 mb 0.00 in0.0 mm 0.00 in/hr0.0 mm/hr 0.00 in0.0 mm
01:30 AM 68.0°F20.0°C 65.6°F18.7°C 92% 0.1 mph ESE0.2 kmh ESE -- 29.91 in1012.9 mb 0.00 in0.0 mm 0.00 in/hr0.0 mm/hr 0.00 in0.0 mm
01:40 AM 68.2°F20.1°C 66.1°F18.9°C 93% Calm Calm -- 29.91 in1012.9 mb 0.00 in0.0 mm 0.00 in/hr0.0 mm/hr 0.00 in0.0 mm
01:50 AM 68.5°F20.3°C 66.1°F18.9°C 92% Calm Calm -- 29.91 in1012.9 mb 0.00 in0.0 mm 0.00 in/hr0.0 mm/hr 0.00 in0.0 mm
02:00 AM 68.7°F20.4°C 66.3°F19.1°C 92% Calm Calm -- 29.91 in1012.9 mb 0.00 in0.0 mm 0.00 in/hr0.0 mm/hr 0.00 in0.0 mm
02:10 AM 68.8°F20.4°C 66.4°F19.1°C 92% 2.4 mph ESE3.9 kmh ESE 4.0 mph6.4 kmh 29.91 in1012.9 mb 0.00 in0.0 mm 0.00 in/hr0.0 mm/hr 0.00 in0.0 mm
02:20 AM 68.8°F20.4°C 66.1°F18.9°C 91% Calm Calm -- 29.91 in1012.9 mb 0.00 in0.0 mm 0.00 in/hr0.0 mm/hr 0.00 in0.0 mm
02:30 AM 68.6°F20.3°C 65.9°F18.8°C 91% Calm Calm -- 29.91 in1012.9 mb 0.00 in0.0 mm 0.00 in/hr0.0 mm/hr 0.00 in0.0 mm
02:40 AM 68.4°F20.2°C 65.7°F18.7°C 91% 1.2 mph ESE1.9 kmh ESE 2.0 mph3.2 kmh 29.90 in1012.5 mb 0.00 in0.0 mm 0.00 in/hr0.0 mm/hr 0.00 in0.0 mm
02:50 AM 68.1°F20.1°C 65.4°F18.6°C 91% Calm Calm -- 29.91 in1012.9 mb 0.00 in0.0 mm 0.00 in/hr0.0 mm/hr 0.00 in0.0 mm
03:00 AM 67.9°F19.9°C 65.2°F18.4°C 91% Calm Calm -- 29.91 in1012.9 mb 0.00 in0.0 mm 0.00 in/hr0.0 mm/hr 0.00 in0.0 mm
03:10 AM 67.9°F19.9°C 65.5°F18.6°C 92% Calm Calm -- 29.91 in1012.9 mb 0.00 in0.0 mm 0.00 in/hr0.0 mm/hr 0.00 in0.0 mm
03:20 AM 67.9°F19.9°C 65.5°F18.6°C 92% Calm Calm -- 29.90 in1012.5 mb 0.00 in0.0 mm 0.00 in/hr0.0 mm/hr 0.00 in0.0 mm
03:30 AM 67.9°F19.9°C 65.5°F18.6°C 92% Calm Calm -- 29.90 in1012.5 mb 0.00 in0.0 mm 0.00 in/hr0.0 mm/hr 0.00 in0.0 mm
03:40 AM 68.0°F20.0°C 65.6°F18.7°C 92% Calm Calm -- 29.90 in1012.5 mb 0.00 in0.0 mm 0.00 in/hr0.0 mm/hr 0.00 in0.0 mm
03:50 AM 67.9°F19.9°C 65.8°F18.8°C 93% Calm Calm -- 29.90 in1012.5 mb 0.00 in0.0 mm 0.00 in/hr0.0 mm/hr 0.00 in0.0 mm
04:00 AM 68.0°F20.0°C 65.9°F18.8°C 93% Calm Calm -- 29.90 in1012.5 mb 0.00 in0.0 mm 0.00 in/hr0.0 mm/hr 0.00 in0.0 mm
04:10 AM 68.2°F20.1°C 66.1°F18.9°C 93% Calm Calm -- 29.90 in1012.5 mb 0.00 in0.0 mm 0.00 in/hr0.0 mm/hr 0.00 in0.0 mm
04:20 AM 68.4°F20.2°C 66.3°F19.1°C 93% Calm Calm 1.0 mph1.6 kmh 29.90 in1012.5 mb 0.00 in0.0 mm 0.00 in/hr0.0 mm/hr 0.00 in0.0 mm
04:30 AM 68.5°F20.3°C 66.1°F18.9°C 92% Calm Calm -- 29.90 in1012.5 mb 0.00 in0.0 mm 0.00 in/hr0.0 mm/hr 0.00 in0.0 mm
04:40 AM 68.5°F20.3°C 65.8°F18.8°C 91% Calm Calm -- 29.90 in1012.5 mb 0.00 in0.0 mm 0.00 in/hr0.0 mm/hr 0.00 in0.0 mm
04:50 AM 68.3°F20.2°C 65.6°F18.7°C 91% Calm Calm -- 29.90 in1012.5 mb 0.00 in0.0 mm 0.00 in/hr0.0 mm/hr 0.00 in0.0 mm
05:00 AM 68.1°F20.1°C 65.4°F18.6°C 91% Calm Calm -- 29.90 in1012.5 mb 0.00 in0.0 mm 0.00 in/hr0.0 mm/hr 0.00 in0.0 mm
05:10 AM 67.9°F19.9°C 65.1°F18.4°C 91% Calm Calm -- 29.90 in1012.5 mb 0.00 in0.0 mm 0.00 in/hr0.0 mm/hr 0.00 in0.0 mm
05:20 AM 67.6°F19.8°C 64.9°F18.3°C 91% Calm Calm -- 29.90 in1012.5 mb 0.00 in0.0 mm 0.00 in/hr0.0 mm/hr 0.00 in0.0 mm
05:30 AM 67.4°F19.7°C 65.0°F18.3°C 92% 1.2 mph ESE1.9 kmh ESE 1.0 mph1.6 kmh 29.91 in1012.9 mb 0.00 in0.0 mm 0.00 in/hr0.0 mm/hr 0.00 in0.0 mm
05:40 AM 67.3°F19.6°C 64.9°F18.3°C 92% Calm Calm -- 29.91 in1012.9 mb 0.00 in0.0 mm 0.00 in/hr0.0 mm/hr 0.00 in0.0 mm
05:50 AM 67.2°F19.6°C 64.8°F18.2°C 92% Calm Calm -- 29.91 in1012.9 mb 0.00 in0.0 mm 0.00 in/hr0.0 mm/hr 0.00 in0.0 mm
06:00 AM 67.2°F19.6°C 64.8°F18.2°C 92% Calm Calm -- 29.91 in1012.9 mb 0.00 in0.0 mm 0.00 in/hr0.0 mm/hr 0.00 in0.0 mm
06:10 AM 67.2°F19.6°C 64.8°F18.2°C 92% Calm Calm -- 29.91 in1012.9 mb 0.00 in0.0 mm 0.00 in/hr0.0 mm/hr 0.00 in0.0 mm
06:20 AM 67.3°F19.6°C 64.9°F18.3°C 92% Calm Calm -- 29.92 in1013.2 mb 0.00 in0.0 mm 0.00 in/hr0.0 mm/hr 0.00 in0.0 mm
06:30 AM 67.4°F19.7°C 65.0°F18.3°C 92% Calm Calm -- 29.92 in1013.2 mb 0.00 in0.0 mm 0.00 in/hr0.0 mm/hr 0.00 in0.0 mm
06:40 AM 67.4°F19.7°C 64.7°F18.2°C 91% Calm Calm -- 29.93 in1013.5 mb 0.00 in0.0 mm 0.00 in/hr0.0 mm/hr 0.00 in0.0 mm
06:50 AM 67.5°F19.7°C 64.7°F18.2°C 91% 1.8 mph ESE2.9 kmh ESE 2.0 mph3.2 kmh 29.93 in1013.5 mb 0.00 in0.0 mm 0.00 in/hr0.0 mm/hr 0.00 in0.0 mm
07:00 AM 67.5°F19.7°C 64.8°F18.2°C 91% Calm Calm -- 29.93 in1013.5 mb 0.00 in0.0 mm 0.00 in/hr0.0 mm/hr 0.00 in0.0 mm
07:10 AM 67.7°F19.8°C 65.3°F18.5°C 92% Calm Calm -- 29.93 in1013.5 mb 0.00 in0.0 mm 0.00 in/hr0.0 mm/hr 0.00 in0.0 mm
07:20 AM 67.9°F19.9°C 65.5°F18.6°C 92% Calm Calm -- 29.93 in1013.5 mb 0.00 in0.0 mm 0.00 in/hr0.0 mm/hr 0.00 in0.0 mm
07:30 AM 68.2°F20.1°C 65.8°F18.8°C 92% Calm Calm 1.0 mph1.6 kmh 29.94 in1013.9 mb 0.00 in0.0 mm 0.00 in/hr0.0 mm/hr 0.00 in0.0 mm
07:40 AM 69.1°F20.6°C 66.7°F19.3°C 92% 0.1 mph ESE0.2 kmh ESE -- 29.94 in1013.9 mb 0.00 in0.0 mm 0.00 in/hr0.0 mm/hr 0.00 in0.0 mm
07:50 AM 70.9°F21.6°C 67.8°F19.9°C 90% Calm Calm -- 29.94 in1013.9 mb 0.00 in0.0 mm 0.00 in/hr0.0 mm/hr 0.00 in0.0 mm
08:00 AM 73.1°F22.8°C 68.3°F20.2°C 85% Calm Calm -- 29.94 in1013.9 mb 0.00 in0.0 mm 0.00 in/hr0.0 mm/hr 0.00 in0.0 mm
08:10 AM 75.6°F24.2°C 69.0°F20.6°C 80% Calm Calm -- 29.95 in1014.2 mb 0.00 in0.0 mm 0.00 in/hr0.0 mm/hr 0.00 in0.0 mm
08:20 AM 76.8°F24.9°C 69.0°F20.6°C 77% Calm Calm -- 29.95 in1014.2 mb 0.00 in0.0 mm 0.00 in/hr0.0 mm/hr 0.00 in0.0 mm
08:30 AM 78.1°F25.6°C 69.2°F20.7°C 74% Calm Calm -- 29.95 in1014.2 mb 0.00 in0.0 mm 0.00 in/hr0.0 mm/hr 0.00 in0.0 mm
08:40 AM 79.1°F26.2°C 69.3°F20.7°C 72% Calm Calm -- 29.95 in1014.2 mb 0.00 in0.0 mm 0.00 in/hr0.0 mm/hr 0.00 in0.0 mm
08:50 AM 80.0°F26.7°C 69.8°F21.0°C 71% Calm Calm -- 29.95 in1014.2 mb 0.00 in0.0 mm 0.00 in/hr0.0 mm/hr 0.00 in0.0 mm
09:00 AM 80.7°F27.1°C 69.6°F20.9°C 69% 2.6 mph SSE4.2 kmh SSE 5.0 mph8.0 kmh 29.95 in1014.2 mb 0.00 in0.0 mm 0.00 in/hr0.0 mm/hr 0.00 in0.0 mm
09:10 AM 80.4°F26.9°C 69.3°F20.7°C 69% 2.6 mph SE4.2 kmh SE 4.0 mph6.4 kmh 29.96 in1014.6 mb 0.00 in0.0 mm 0.00 in/hr0.0 mm/hr 0.00 in0.0 mm
09:20 AM 80.9°F27.2°C 70.2°F21.2°C 70% 0.1 mph SE0.2 kmh SE 3.0 mph4.8 kmh 29.96 in1014.6 mb 0.00 in0.0 mm 0.00 in/hr0.0 mm/hr 0.00 in0.0 mm
09:30 AM 80.8°F27.1°C 70.5°F21.4°C 71% 1.1 mph SE1.8 kmh SE 4.0 mph6.4 kmh 29.96 in1014.6 mb 0.00 in0.0 mm 0.00 in/hr0.0 mm/hr 0.00 in0.0 mm
09:40 AM 79.9°F26.6°C 70.4°F21.3°C 73% 3.7 mph S6.0 kmh S 4.0 mph6.4 kmh 29.96 in1014.6 mb 0.00 in0.0 mm 0.00 in/hr0.0 mm/hr 0.00 in0.0 mm
09:50 AM 79.0°F26.1°C 70.8°F21.6°C 76% 3.2 mph SW5.1 kmh SW 6.0 mph9.7 kmh 29.96 in1014.6 mb 0.00 in0.0 mm 0.00 in/hr0.0 mm/hr 0.00 in0.0 mm
10:00 AM 78.3°F25.7°C 70.5°F21.4°C 77% 2.3 mph SW3.7 kmh SW 5.0 mph8.0 kmh 29.96 in1014.6 mb 0.00 in0.0 mm 0.00 in/hr0.0 mm/hr 0.00 in0.0 mm
10:10 AM 78.5°F25.8°C 70.7°F21.5°C 77% 3.0 mph SW4.8 kmh SW 5.0 mph8.0 kmh 29.96 in1014.6 mb 0.00 in0.0 mm 0.00 in/hr0.0 mm/hr 0.00 in0.0 mm
10:20 AM 78.3°F25.7°C 70.5°F21.4°C 77% 5.0 mph WNW8.0 kmh WNW 5.0 mph8.0 kmh 29.96 in1014.6 mb 0.00 in0.0 mm 0.00 in/hr0.0 mm/hr 0.00 in0.0 mm
10:30 AM 77.8°F25.4°C 70.4°F21.3°C 78% Calm Calm -- 29.95 in1014.2 mb 0.00 in0.0 mm 0.00 in/hr0.0 mm/hr 0.00 in0.0 mm
10:40 AM 77.4°F25.2°C 70.4°F21.3°C 79% 3.2 mph WNW5.1 kmh WNW 3.0 mph4.8 kmh 29.95 in1014.2 mb 0.00 in0.0 mm 0.00 in/hr0.0 mm/hr 0.00 in0.0 mm
10:50 AM 77.0°F25.0°C 70.4°F21.3°C 80% 0.1 mph WNW0.2 kmh WNW 4.0 mph6.4 kmh 29.95 in1014.2 mb 0.00 in0.0 mm 0.00 in/hr0.0 mm/hr 0.00 in0.0 mm
11:00 AM 76.9°F24.9°C 70.6°F21.4°C 81% Calm Calm -- 29.95 in1014.2 mb 0.00 in0.0 mm 0.00 in/hr0.0 mm/hr 0.00 in0.0 mm
11:10 AM 77.4°F25.2°C 71.1°F21.7°C 81% Calm Calm -- 29.95 in1014.2 mb 0.00 in0.0 mm 0.00 in/hr0.0 mm/hr 0.00 in0.0 mm
11:20 AM 77.7°F25.4°C 71.0°F21.7°C 80% 0.1 mph WNW0.2 kmh WNW -- 29.95 in1014.2 mb 0.00 in0.0 mm 0.00 in/hr0.0 mm/hr 0.00 in0.0 mm
11:30 AM 77.5°F25.3°C 71.6°F22.0°C 82% 2.7 mph NW4.3 kmh NW 4.0 mph6.4 kmh 29.95 in1014.2 mb 0.00 in0.0 mm 0.00 in/hr0.0 mm/hr 0.00 in0.0 mm
11:40 AM 77.3°F25.2°C 72.8°F22.7°C 86% Calm Calm 3.0 mph4.8 kmh 29.94 in1013.9 mb 0.00 in0.0 mm 0.00 in/hr0.0 mm/hr 0.00 in0.0 mm
11:50 AM 77.0°F25.0°C 72.1°F22.3°C 85% Calm Calm -- 29.94 in1013.9 mb 0.00 in0.0 mm 0.00 in/hr0.0 mm/hr 0.00 in0.0 mm
12:00 PM 77.1°F25.1°C 72.2°F22.3°C 85% 3.0 mph ENE4.8 kmh ENE 4.0 mph6.4 kmh 29.93 in1013.5 mb 0.00 in0.0 mm 0.00 in/hr0.0 mm/hr 0.00 in0.0 mm
12:10 PM 76.4°F24.7°C 72.2°F22.3°C 87% 5.1 mph NE8.2 kmh NE 6.0 mph9.7 kmh 29.93 in1013.5 mb 0.02 in0.5 mm 0.12 in/hr3.0 mm/hr 0.02 in0.5 mm
12:20 PM 75.6°F24.2°C 71.8°F22.1°C 88% 1.3 mph NE2.1 kmh NE 6.0 mph9.7 kmh 29.93 in1013.5 mb 0.00 in0.0 mm 0.00 in/hr0.0 mm/hr 0.02 in0.5 mm
12:30 PM 74.9°F23.8°C 71.4°F21.9°C 89% 5.3 mph ENE8.5 kmh ENE 5.0 mph8.0 kmh 29.92 in1013.2 mb 0.02 in0.5 mm 0.12 in/hr3.0 mm/hr 0.04 in1.0 mm
12:40 PM 74.3°F23.5°C 71.2°F21.8°C 90% Calm Calm -- 29.92 in1013.2 mb 0.02 in0.5 mm 0.12 in/hr3.0 mm/hr 0.06 in1.5 mm
12:50 PM 74.1°F23.4°C 71.0°F21.7°C 90% Calm Calm -- 29.92 in1013.2 mb 0.01 in0.3 mm 0.06 in/hr1.5 mm/hr 0.07 in1.8 mm
01:00 PM 74.1°F23.4°C 71.0°F21.7°C 90% Calm Calm -- 29.91 in1012.9 mb 0.00 in0.0 mm 0.00 in/hr0.0 mm/hr 0.07 in1.8 mm
01:10 PM 74.6°F23.7°C 71.8°F22.1°C 91% Calm Calm -- 29.91 in1012.9 mb 0.00 in0.0 mm 0.00 in/hr0.0 mm/hr 0.07 in1.8 mm
01:20 PM 74.7°F23.7°C 71.6°F22.0°C 90% 3.5 mph ENE5.6 kmh ENE 5.0 mph8.0 kmh 29.91 in1012.9 mb 0.00 in0.0 mm 0.00 in/hr0.0 mm/hr 0.07 in1.8 mm
01:30 PM 74.7°F23.7°C 71.6°F22.0°C 90% 3.7 mph ENE6.0 kmh ENE 7.0 mph11.3 kmh 29.91 in1012.9 mb 0.00 in0.0 mm 0.00 in/hr0.0 mm/hr 0.07 in1.8 mm
01:40 PM 74.4°F23.6°C 70.6°F21.4°C 88% 5.0 mph E8.0 kmh E 6.0 mph9.7 kmh 29.90 in1012.5 mb 0.07 in1.8 mm 0.42 in/hr10.7 mm/hr 0.15 in3.8 mm
01:50 PM 73.5°F23.1°C 70.4°F21.3°C 90% 3.6 mph ENE5.8 kmh ENE 7.0 mph11.3 kmh 29.90 in1012.5 mb 0.11 in2.8 mm 0.66 in/hr16.8 mm/hr 0.23 in5.8 mm
02:00 PM 72.6°F22.6°C 69.8°F21.0°C 91% 0.9 mph ENE1.4 kmh ENE -- 29.90 in1012.5 mb 0.12 in3.0 mm 0.14 in/hr3.6 mm/hr 0.34 in8.6 mm
02:10 PM 72.3°F22.4°C 69.9°F21.1°C 92% Calm Calm -- 29.90 in1012.5 mb 0.08 in2.0 mm 0.48 in/hr12.2 mm/hr 0.41 in10.4 mm
02:20 PM 72.0°F22.2°C 69.6°F20.9°C 92% Calm Calm -- 29.89 in1012.2 mb 0.06 in1.5 mm 0.36 in/hr9.1 mm/hr 0.46 in11.7 mm
02:30 PM 71.7°F22.1°C 69.6°F20.9°C 93% 1.5 mph E2.4 kmh E -- 29.89 in1012.2 mb 0.20 in5.1 mm 1.20 in/hr30.5 mm/hr 0.66 in16.8 mm
02:40 PM 71.5°F21.9°C 69.7°F20.9°C 94% Calm Calm -- 29.89 in1012.2 mb 0.16 in4.1 mm 0.96 in/hr24.4 mm/hr 0.81 in20.6 mm
02:50 PM 71.5°F21.9°C 69.7°F20.9°C 94% Calm Calm -- 29.89 in1012.2 mb 0.11 in2.8 mm 0.66 in/hr16.8 mm/hr 0.91 in23.1 mm
03:00 PM 71.8°F22.1°C 70.2°F21.2°C 95% 1.2 mph E1.9 kmh E 3.0 mph4.8 kmh 29.89 in1012.2 mb 0.02 in0.5 mm 0.02 in/hr0.5 mm/hr 0.93 in23.6 mm
03:10 PM 72.1°F22.3°C 70.6°F21.4°C 95% 0.2 mph E0.3 kmh E -- 29.89 in1012.2 mb 0.03 in0.8 mm 0.18 in/hr4.6 mm/hr 0.95 in24.1 mm
03:20 PM 72.2°F22.3°C 70.4°F21.3°C 94% 0.1 mph E0.2 kmh E 1.0 mph1.6 kmh 29.89 in1012.2 mb 0.03 in0.8 mm 0.18 in/hr4.6 mm/hr 0.98 in24.9 mm
03:30 PM 72.0°F22.2°C 70.2°F21.2°C 94% Calm Calm -- 29.89 in1012.2 mb 0.06 in1.5 mm 0.36 in/hr9.1 mm/hr 1.04 in26.4 mm
03:40 PM 71.8°F22.1°C 70.0°F21.1°C 94% Calm Calm -- 29.89 in1012.2 mb 0.04 in1.0 mm 0.24 in/hr6.1 mm/hr 1.08 in27.4 mm
03:50 PM 71.5°F21.9°C 69.7°F20.9°C 94% Calm Calm -- 29.89 in1012.2 mb 0.07 in1.8 mm 0.42 in/hr10.7 mm/hr 1.15 in29.2 mm
04:00 PM 71.4°F21.9°C 69.9°F21.1°C 95% Calm Calm -- 29.90 in1012.5 mb 0.02 in0.5 mm 0.02 in/hr0.5 mm/hr 1.16 in29.5 mm
04:10 PM 71.5°F21.9°C 70.0°F21.1°C 95% Calm Calm -- 29.90 in1012.5 mb 0.01 in0.3 mm 0.06 in/hr1.5 mm/hr 1.17 in29.7 mm
04:20 PM 71.5°F21.9°C 70.0°F21.1°C 95% Calm Calm -- 29.90 in1012.5 mb 0.03 in0.8 mm 0.18 in/hr4.6 mm/hr 1.20 in30.5 mm
04:30 PM 71.4°F21.9°C 69.9°F21.1°C 95% 0.5 mph E0.8 kmh E 4.0 mph6.4 kmh 29.90 in1012.5 mb 0.03 in0.8 mm 0.18 in/hr4.6 mm/hr 1.22 in31.0 mm
04:40 PM 71.2°F21.8°C 69.7°F20.9°C 95% 5.5 mph S8.9 kmh S 6.0 mph9.7 kmh 29.90 in1012.5 mb 0.01 in0.3 mm 0.06 in/hr1.5 mm/hr 1.23 in31.2 mm
04:50 PM 70.9°F21.6°C 69.4°F20.8°C 95% 2.3 mph S3.7 kmh S 3.0 mph4.8 kmh 29.91 in1012.9 mb 0.02 in0.5 mm 0.12 in/hr3.0 mm/hr 1.24 in31.5 mm
05:00 PM 70.8°F21.6°C 69.3°F20.7°C 95% Calm Calm -- 29.91 in1012.9 mb 0.01 in0.3 mm 0.01 in/hr0.3 mm/hr 1.25 in31.8 mm
05:10 PM 70.7°F21.5°C 69.2°F20.7°C 95% Calm Calm -- 29.91 in1012.9 mb 0.00 in0.0 mm 0.00 in/hr0.0 mm/hr 1.25 in31.8 mm
05:20 PM 70.7°F21.5°C 69.2°F20.7°C 95% Calm Calm -- 29.91 in1012.9 mb 0.00 in0.0 mm 0.00 in/hr0.0 mm/hr 1.25 in31.8 mm
05:30 PM 70.7°F21.5°C 69.2°F20.7°C 95% Calm Calm -- 29.92 in1013.2 mb 0.00 in0.0 mm 0.00 in/hr0.0 mm/hr 1.25 in31.8 mm
05:40 PM 70.8°F21.6°C 69.3°F20.7°C 95% Calm Calm -- 29.92 in1013.2 mb 0.00 in0.0 mm 0.00 in/hr0.0 mm/hr 1.25 in31.8 mm
05:50 PM 70.7°F21.5°C 69.2°F20.7°C 95% Calm Calm -- 29.92 in1013.2 mb 0.00 in0.0 mm 0.00 in/hr0.0 mm/hr 1.25 in31.8 mm
06:00 PM 70.8°F21.6°C 69.2°F20.7°C 95% Calm Calm -- 29.92 in1013.2 mb 0.00 in0.0 mm 0.00 in/hr0.0 mm/hr 1.25 in31.8 mm
06:10 PM 70.7°F21.5°C 69.2°F20.7°C 95% Calm Calm -- 29.92 in1013.2 mb 0.00 in0.0 mm 0.00 in/hr0.0 mm/hr 1.25 in31.8 mm
06:20 PM 70.5°F21.4°C 69.0°F20.6°C 95% Calm Calm -- 29.93 in1013.5 mb 0.00 in0.0 mm 0.00 in/hr0.0 mm/hr 1.25 in31.8 mm
06:30 PM 70.2°F21.2°C 68.7°F20.4°C 95% Calm Calm -- 29.93 in1013.5 mb 0.00 in0.0 mm 0.00 in/hr0.0 mm/hr 1.25 in31.8 mm
06:40 PM 70.1°F21.2°C 68.6°F20.3°C 95% Calm Calm -- 29.93 in1013.5 mb 0.00 in0.0 mm 0.00 in/hr0.0 mm/hr 1.25 in31.8 mm
06:50 PM 69.8°F21.0°C 68.3°F20.2°C 95% Calm Calm -- 29.93 in1013.5 mb 0.00 in0.0 mm 0.00 in/hr0.0 mm/hr 1.25 in31.8 mm
07:00 PM 69.5°F20.8°C 68.0°F20.0°C 95% Calm Calm -- 29.93 in1013.5 mb 0.00 in0.0 mm 0.00 in/hr0.0 mm/hr 1.25 in31.8 mm
07:10 PM 69.3°F20.7°C 67.8°F19.9°C 95% Calm Calm -- 29.93 in1013.5 mb 0.00 in0.0 mm 0.00 in/hr0.0 mm/hr 1.25 in31.8 mm
07:20 PM 69.1°F20.6°C 67.6°F19.8°C 95% Calm Calm -- 29.94 in1013.9 mb 0.00 in0.0 mm 0.00 in/hr0.0 mm/hr 1.25 in31.8 mm
07:30 PM 69.0°F20.6°C 67.5°F19.7°C 95% Calm Calm -- 29.94 in1013.9 mb 0.00 in0.0 mm 0.00 in/hr0.0 mm/hr 1.25 in31.8 mm
07:40 PM 68.7°F20.4°C 67.2°F19.6°C 95% Calm Calm -- 29.95 in1014.2 mb 0.00 in0.0 mm 0.00 in/hr0.0 mm/hr 1.25 in31.8 mm
07:50 PM 68.7°F20.4°C 67.5°F19.7°C 96% Calm Calm -- 29.95 in1014.2 mb 0.00 in0.0 mm 0.00 in/hr0.0 mm/hr 1.25 in31.8 mm
08:00 PM 68.9°F20.5°C 67.7°F19.8°C 96% Calm Calm -- 29.95 in1014.2 mb 0.00 in0.0 mm 0.00 in/hr0.0 mm/hr 1.25 in31.8 mm
08:10 PM 69.0°F20.6°C 67.8°F19.9°C 96% Calm Calm -- 29.95 in1014.2 mb 0.00 in0.0 mm 0.00 in/hr0.0 mm/hr 1.25 in31.8 mm
08:20 PM 69.1°F20.6°C 67.9°F19.9°C 96% Calm Calm -- 29.96 in1014.6 mb 0.00 in0.0 mm 0.00 in/hr0.0 mm/hr 1.25 in31.8 mm
08:30 PM 68.9°F20.5°C 67.8°F19.9°C 96% Calm Calm -- 29.96 in1014.6 mb 0.00 in0.0 mm 0.00 in/hr0.0 mm/hr 1.25 in31.8 mm
08:40 PM 68.8°F20.4°C 67.6°F19.8°C 96% Calm Calm -- 29.96 in1014.6 mb 0.00 in0.0 mm 0.00 in/hr0.0 mm/hr 1.25 in31.8 mm
08:50 PM 68.8°F20.4°C 67.6°F19.8°C 96% Calm Calm 1.0 mph1.6 kmh 29.96 in1014.6 mb 0.00 in0.0 mm 0.00 in/hr0.0 mm/hr 1.25 in31.8 mm
09:00 PM 68.7°F20.4°C 67.5°F19.7°C 96% Calm Calm -- 29.96 in1014.6 mb 0.00 in0.0 mm 0.00 in/hr0.0 mm/hr 1.25 in31.8 mm
09:10 PM 68.4°F20.2°C 66.9°F19.4°C 95% Calm Calm -- 29.96 in1014.6 mb 0.00 in0.0 mm 0.00 in/hr0.0 mm/hr 1.25 in31.8 mm
09:20 PM 68.2°F20.1°C 67.0°F19.4°C 96% Calm Calm -- 29.96 in1014.6 mb 0.01 in0.3 mm 0.06 in/hr1.5 mm/hr 1.26 in32.0 mm
09:30 PM 68.1°F20.1°C 66.9°F19.4°C 96% 0.1 mph S0.2 kmh S -- 29.96 in1014.6 mb 0.00 in0.0 mm 0.00 in/hr0.0 mm/hr 1.26 in32.0 mm
09:40 PM 67.9°F19.9°C 66.4°F19.1°C 95% Calm Calm -- 29.96 in1014.6 mb 0.00 in0.0 mm 0.00 in/hr0.0 mm/hr 1.26 in32.0 mm
09:50 PM 67.6°F19.8°C 66.1°F18.9°C 95% Calm Calm -- 29.96 in1014.6 mb 0.00 in0.0 mm 0.00 in/hr0.0 mm/hr 1.26 in32.0 mm
10:00 PM 67.4°F19.7°C 65.9°F18.8°C 95% Calm Calm -- 29.96 in1014.6 mb 0.00 in0.0 mm 0.00 in/hr0.0 mm/hr 1.26 in32.0 mm
10:10 PM 67.1°F19.5°C 65.6°F18.7°C 95% Calm Calm -- 29.95 in1014.2 mb 0.00 in0.0 mm 0.00 in/hr0.0 mm/hr 1.26 in32.0 mm
10:20 PM 66.8°F19.3°C 65.3°F18.5°C 95% Calm Calm -- 29.95 in1014.2 mb 0.00 in0.0 mm 0.00 in/hr0.0 mm/hr 1.26 in32.0 mm
10:30 PM 66.8°F19.3°C 65.6°F18.7°C 96% Calm Calm -- 29.96 in1014.6 mb 0.00 in0.0 mm 0.00 in/hr0.0 mm/hr 1.26 in32.0 mm
10:40 PM 67.0°F19.4°C 65.8°F18.8°C 96% Calm Calm -- 29.96 in1014.6 mb 0.00 in0.0 mm 0.00 in/hr0.0 mm/hr 1.26 in32.0 mm
10:50 PM 67.1°F19.5°C 66.2°F19.0°C 97% Calm Calm -- 29.96 in1014.6 mb 0.00 in0.0 mm 0.00 in/hr0.0 mm/hr 1.26 in32.0 mm
11:00 PM 67.3°F19.6°C 66.4°F19.1°C 97% Calm Calm -- 29.96 in1014.6 mb 0.00 in0.0 mm 0.00 in/hr0.0 mm/hr 1.26 in32.0 mm
11:10 PM 67.4°F19.7°C 66.2°F19.0°C 96% Calm Calm -- 29.95 in1014.2 mb 0.00 in0.0 mm 0.00 in/hr0.0 mm/hr 1.26 in32.0 mm
11:20 PM 67.3°F19.6°C 66.1°F18.9°C 96% 1.3 mph S2.1 kmh S 3.0 mph4.8 kmh 29.95 in1014.2 mb 0.00 in0.0 mm 0.00 in/hr0.0 mm/hr 1.26 in32.0 mm
11:30 PM 67.6°F19.8°C 66.7°F19.3°C 97% 2.8 mph E4.5 kmh E 4.0 mph6.4 kmh 29.95 in1014.2 mb 0.00 in0.0 mm 0.00 in/hr0.0 mm/hr 1.26 in32.0 mm
11:40 PM 67.6°F19.8°C 66.4°F19.1°C 96% Calm Calm -- 29.95 in1014.2 mb 0.00 in0.0 mm 0.00 in/hr0.0 mm/hr 1.26 in32.0 mm
11:50 PM 67.5°F19.7°C 66.3°F19.1°C 96% 2.7 mph E4.3 kmh E 3.0 mph4.8 kmh 29.95 in1014.2 mb 0.00 in0.0 mm 0.00 in/hr0.0 mm/hr 1.26 in32.0 mm